Time;durP1;ratioP1;P1;durP2;ratioP2;P2;SDS_P1;SDS_P2;PMS_P1;PMS_P2;Temp;Humidity;BMP_temperature;BMP_pressure;BME280_temperature;BME280_humidity;BME280_pressure;Samples;Min_cycle;Max_cycle;Signal;HPM_P1;HPM_P2
2023/10/07 00:00:27;;;;;;;9.77;4.60;;;;;;;10.69;100.00;101416.28;693004;28;1034;-64
2023/10/07 00:00:49;;;;;;;8.88;4.47;;;;;;;10.70;100.00;101419.78;692784;28;4532;-64
2023/10/07 00:01:11;;;;;;;9.43;4.47;;;;;;;10.69;100.00;101425.88;693697;28;992;-64
2023/10/07 00:01:33;;;;;;;9.27;4.93;;;;;;;10.69;100.00;101420.66;692226;28;1539;-64
2023/10/07 00:01:54;;;;;;;8.20;4.40;;;;;;;10.68;100.00;101425.00;692849;28;921;-64
2023/10/07 00:02:15;;;;;;;8.30;4.43;;;;;;;10.69;100.00;101421.53;692783;28;1138;-64
2023/10/07 00:02:36;;;;;;;8.48;4.47;;;;;;;10.70;100.00;101422.38;687973;28;2416;-64
2023/10/07 00:02:56;;;;;;;8.43;4.77;;;;;;;10.70;100.00;101422.38;689467;28;924;-64
2023/10/07 00:03:20;;;;;;;8.93;4.82;;;;;;;10.69;100.00;101416.28;689208;28;1481;-65
2023/10/07 00:03:41;;;;;;;8.65;4.90;;;;;;;10.75;100.00;101425.91;690702;28;4486;-64
2023/10/07 00:04:05;;;;;;;8.98;4.30;;;;;;;10.76;100.00;101425.06;686140;28;883;-64
2023/10/07 00:04:30;;;;;;;8.10;4.38;;;;;;;10.76;100.00;101421.56;686038;28;1749;-64
2023/10/07 00:04:50;;;;;;;9.00;4.82;;;;;;;10.74;100.00;101416.31;689596;28;900;-64
2023/10/07 00:05:15;;;;;;;9.03;4.53;;;;;;;10.75;100.00;101422.44;690037;28;951;-65
2023/10/07 00:05:38;;;;;;;8.10;4.03;;;;;;;10.76;100.00;101422.44;690424;28;1416;-64
2023/10/07 00:06:01;;;;;;;8.27;4.38;;;;;;;10.74;100.00;101424.16;688351;28;829;-65
2023/10/07 00:06:26;;;;;;;8.40;4.57;;;;;;;10.75;100.00;101420.69;687221;28;1512;-64
2023/10/07 00:06:47;;;;;;;9.10;4.47;;;;;;;10.80;100.00;101421.59;688896;28;4407;-65
2023/10/07 00:07:11;;;;;;;9.87;4.30;;;;;;;10.80;100.00;101423.31;688384;28;1300;-64
2023/10/07 00:07:34;;;;;;;7.95;4.47;;;;;;;10.79;100.00;101422.47;689794;28;1801;-64
2023/10/07 00:08:01;;;;;;;8.77;4.38;;;;;;;10.79;100.00;101419.84;693423;28;943;-64
2023/10/07 00:08:21;;;;;;;9.05;4.30;;;;;;;10.75;100.00;101420.69;691515;28;1879;-64
2023/10/07 00:08:42;;;;;;;9.23;4.50;;;;;;;10.75;100.00;101420.69;693853;28;991;-64
2023/10/07 00:09:09;;;;;;;8.67;4.83;;;;;;;10.75;100.00;101428.53;693330;28;1055;-64
2023/10/07 00:09:31;;;;;;;7.45;4.53;;;;;;;10.76;100.00;101427.69;691765;28;1518;-64
2023/10/07 00:09:51;;;;;;;7.47;4.45;;;;;;;10.75;100.00;101425.06;687230;28;4571;-64
2023/10/07 00:10:16;;;;;;;8.27;4.57;;;;;;;10.73;100.00;101427.66;687653;28;987;-64
2023/10/07 00:10:37;;;;;;;7.45;4.10;;;;;;;10.73;100.00;101430.28;688933;28;988;-63
2023/10/07 00:11:02;;;;;;;8.52;4.80;;;;;;;10.71;100.00;101430.25;687948;28;1047;-63
2023/10/07 00:11:23;;;;;;;8.20;4.50;;;;;;;10.71;100.00;101425.00;685384;28;1781;-63
2023/10/07 00:11:47;;;;;;;8.15;4.35;;;;;;;10.73;100.00;101427.66;689659;28;813;-63
2023/10/07 00:12:14;;;;;;;8.13;4.32;;;;;;;10.77;100.00;101426.78;693725;28;1490;-65
2023/10/07 00:12:35;;;;;;;8.55;4.43;;;;;;;10.79;100.00;101432.06;689989;28;1227;-65
2023/10/07 00:13:01;;;;;;;7.88;4.20;;;;;;;10.78;100.00;101432.91;692898;28;4493;-65
2023/10/07 00:13:23;;;;;;;8.98;4.22;;;;;;;10.74;100.00;101432.00;691717;28;1652;-64
2023/10/07 00:13:43;;;;;;;10.68;4.63;;;;;;;10.73;100.00;101435.50;693155;28;1017;-66
2023/10/07 00:14:09;;;;;;;9.80;4.60;;;;;;;10.73;100.00;101435.50;693286;28;1189;-63
2023/10/07 00:14:30;;;;;;;10.88;4.78;;;;;;;10.70;100.00;101438.97;691741;28;2203;-63
2023/10/07 00:14:50;;;;;;;7.75;4.50;;;;;;;10.71;100.00;101435.47;689851;28;1050;-63
2023/10/07 00:15:11;;;;;;;8.63;4.38;;;;;;;10.71;100.00;101432.00;689398;28;876;-63
2023/10/07 00:15:32;;;;;;;9.70;4.60;;;;;;;10.73;100.00;101435.50;685146;28;1358;-64
2023/10/07 00:15:53;;;;;;;8.30;4.78;;;;;;;10.70;100.00;101433.75;686296;28;4722;-63
2023/10/07 00:16:17;;;;;;;8.23;4.53;;;;;;;10.71;100.00;101432.00;685991;28;916;-64
2023/10/07 00:16:37;;;;;;;9.10;4.50;;;;;;;10.70;100.00;101433.75;685041;28;2204;-64
2023/10/07 00:16:58;;;;;;;8.63;4.40;;;;;;;10.71;100.00;101432.00;685279;28;928;-63
2023/10/07 00:17:18;;;;;;;7.87;4.40;;;;;;;10.70;100.00;101431.13;682829;28;2433;-64
2023/10/07 00:17:42;;;;;;;8.27;4.63;;;;;;;10.69;100.00;101434.59;687521;28;932;-64
2023/10/07 00:18:23;;;;;;;8.32;4.47;;;;;;;10.66;100.00;101431.97;685633;28;1567;-64
2023/10/07 00:18:45;;;;;;;8.88;4.70;;;;;;;10.66;100.00;101423.22;688142;28;4495;-64
2023/10/07 00:19:07;;;;;;;8.32;4.88;;;;;;;10.69;100.00;101431.97;690068;28;1427;-64
2023/10/07 00:19:28;;;;;;;8.40;4.47;;;;;;;10.69;100.00;101425.88;688195;28;1474;-65
2023/10/07 00:19:48;;;;;;;8.73;4.60;;;;;;;10.70;100.00;101423.28;690426;28;1013;-64
2023/10/07 00:20:10;;;;;;;8.45;4.35;;;;;;;10.73;100.00;101425.03;693439;28;876;-64
2023/10/07 00:20:33;;;;;;;8.18;4.50;;;;;;;10.73;100.00;101428.53;689424;28;1760;-64
2023/10/07 00:20:55;;;;;;;7.80;4.72;;;;;;;10.71;100.00;101424.16;690275;28;1227;-64
2023/10/07 00:21:18;;;;;;;8.95;4.68;;;;;;;10.78;100.00;101418.09;691368;28;968;-64
2023/10/07 00:21:55;;;;;;;8.77;4.55;;;;;;;10.79;100.00;101417.22;690875;28;1245;-64
2023/10/07 00:22:19;;;;;;;7.72;4.32;;;;;;;10.78;100.00;101428.53;691925;28;4743;-64
2023/10/07 00:22:47;;;;;;;7.88;4.40;;;;;;;10.73;100.00;101425.03;692792;28;1423;-64
2023/10/07 00:23:09;;;;;;;7.80;4.28;;;;;;;10.71;100.00;101430.25;689445;28;1292;-64
2023/10/07 00:23:34;;;;;;;8.27;4.30;;;;;;;10.71;100.00;101425.00;689285;28;1473;-64
2023/10/07 00:23:57;;;;;;;6.95;4.20;;;;;;;10.70;100.00;101423.28;688085;28;1046;-65
2023/10/07 00:24:19;;;;;;;7.25;4.50;;;;;;;10.67;100.00;101419.75;689470;28;1809;-65
2023/10/07 00:24:43;;;;;;;7.45;4.15;;;;;;;10.69;100.00;101425.88;691098;28;1532;-64
2023/10/07 00:25:05;;;;;;;7.40;4.38;;;;;;;10.69;100.00;101431.13;691139;28;4717;-64
2023/10/07 00:25:26;;;;;;;7.63;4.20;;;;;;;10.66;100.00;101431.06;690636;28;2204;-64
2023/10/07 00:25:52;;;;;;;8.82;4.30;;;;;;;10.67;100.00;101430.22;693135;28;1150;-64
2023/10/07 00:26:13;;;;;;;8.85;4.78;;;;;;;10.65;100.00;101429.34;693175;28;845;-64
2023/10/07 00:26:40;;;;;;;8.88;4.30;;;;;;;10.66;100.00;101431.06;690233;28;1432;-63
2023/10/07 00:27:00;;;;;;;9.63;4.57;;;;;;;10.65;100.00;101432.81;689831;28;1195;-65
2023/10/07 00:27:29;;;;;;;8.70;4.90;;;;;;;10.68;100.00;101430.22;687746;28;2254;-64
2023/10/07 00:27:50;;;;;;;8.10;4.25;;;;;;;10.67;100.00;101428.47;687329;28;4321;-64
2023/10/07 00:28:28;;;;;;;7.90;4.20;;;;;;;10.69;100.00;101428.50;688958;28;873;-64
2023/10/07 00:28:59;;;;;;;7.43;4.57;;;;;;;10.71;100.00;101435.47;687351;28;968;-64
2023/10/07 00:29:24;;;;;;;9.20;4.55;;;;;;;10.68;100.00;101434.59;686986;28;1897;-64
2023/10/07 00:29:53;;;;;;;8.52;4.85;;;;;;;10.68;100.00;101431.97;690495;28;931;-65
2023/10/07 00:30:22;;;;;;;8.25;4.18;;;;;;;10.67;100.00;101432.84;690379;28;939;-65
2023/10/07 00:30:46;;;;;;;8.43;4.32;;;;;;;10.66;100.00;101433.69;688327;28;4461;-65
2023/10/07 00:31:22;;;;;;;8.05;4.63;;;;;;;10.61;100.00;101428.44;690413;28;1408;-65
2023/10/07 00:31:43;;;;;;;8.48;4.22;;;;;;;10.61;100.00;101428.44;690500;28;1336;-65
2023/10/07 00:32:05;;;;;;;9.25;4.00;;;;;;;10.61;100.00;101427.56;690240;28;738;-65
2023/10/07 00:32:31;;;;;;;8.35;4.38;;;;;;;10.59;100.00;101434.50;688479;28;1821;-65
2023/10/07 00:32:51;;;;;;;8.13;4.18;;;;;;;10.60;100.00;101441.50;692474;28;1078;-64
2023/10/07 00:33:21;;;;;;;8.50;4.20;;;;;;;10.59;100.00;101431.91;693264;28;884;-65
2023/10/07 00:33:50;;;;;;;8.25;4.40;;;;;;;10.54;100.00;101432.75;689100;28;4956;-65
2023/10/07 00:34:14;;;;;;;8.55;4.35;;;;;;;10.56;100.00;101430.13;689345;28;1111;-65
2023/10/07 00:34:39;;;;;;;8.93;4.55;;;;;;;10.53;100.00;101430.97;688314;28;2431;-64
2023/10/07 00:35:00;;;;;;;8.27;4.38;;;;;;;10.54;100.00;101430.13;686532;28;947;-65
2023/10/07 00:35:27;;;;;;;8.75;4.63;;;;;;;10.53;100.00;101430.13;684848;28;1553;-65
2023/10/07 00:35:55;;;;;;;8.43;4.60;;;;;;;10.56;100.00;101431.03;686004;28;2127;-65
2023/10/07 00:36:58;;;;;;;7.03;4.20;;;;;;;10.50;100.00;101430.97;681356;28;4349;-65
2023/10/07 00:37:18;;;;;;;7.47;4.07;;;;;;;10.51;100.00;101430.09;683586;28;825;-65
2023/10/07 00:37:43;;;;;;;7.78;4.03;;;;;;;10.50;100.00;101424.88;683493;28;2310;-65
2023/10/07 00:38:04;;;;;;;7.53;4.20;;;;;;;10.50;100.00;101430.97;683598;28;941;-65
2023/10/07 00:38:37;;;;;;;8.90;4.23;;;;;;;10.51;100.00;101429.25;684748;28;1849;-64
2023/10/07 00:39:00;;;;;;;8.32;4.43;;;;;;;10.49;100.00;101426.59;685502;28;5818;-64
2023/10/07 00:39:21;;;;;;;8.38;4.40;;;;;;;10.51;100.00;101422.25;685781;28;2321;-65
2023/10/07 00:39:41;;;;;;;9.70;4.40;;;;;;;10.52;100.00;101428.34;684856;28;4473;-65
2023/10/07 00:40:15;;;;;;;10.17;4.60;;;;;;;10.51;100.00;101427.50;689528;28;877;-65
2023/10/07 00:40:45;;;;;;;7.65;4.00;;;;;;;10.53;100.00;101427.50;688574;28;1849;-65
2023/10/07 00:41:05;;;;;;;8.40;4.30;;;;;;;10.53;100.00;101430.97;690064;28;953;-64
2023/10/07 00:41:29;;;;;;;8.17;4.20;;;;;;;10.54;100.00;101432.75;689088;28;1707;-65
2023/10/07 00:41:58;;;;;;;7.78;4.15;;;;;;;10.51;100.00;101427.50;688394;28;844;-65
2023/10/07 00:42:22;;;;;;;8.50;4.13;;;;;;;10.49;100.00;101429.22;688542;28;1138;-64
2023/10/07 00:42:47;;;;;;;6.70;4.40;;;;;;;10.57;100.00;101424.91;690819;28;4301;-64
2023/10/07 00:43:09;;;;;;;6.85;4.20;;;;;;;10.61;100.00;101425.81;692770;28;1000;-65
2023/10/07 00:43:33;;;;;;;8.02;4.15;;;;;;;10.60;100.00;101426.69;692363;28;1554;-65
2023/10/07 00:43:59;;;;;;;8.10;3.90;;;;;;;10.60;100.00;101429.28;692575;28;928;-65
2023/10/07 00:44:22;;;;;;;8.85;4.25;;;;;;;10.57;100.00;101437.13;691837;28;2316;-66
2023/10/07 00:44:47;;;;;;;8.90;4.35;;;;;;;10.59;100.00;101424.91;691962;28;1230;-65
2023/10/07 00:45:14;;;;;;;9.27;4.47;;;;;;;10.61;100.00;101432.81;692401;28;1172;-65
2023/10/07 00:45:34;;;;;;;8.93;4.50;;;;;;;10.63;100.00;101428.44;691150;28;1468;-65
2023/10/07 00:46:10;;;;;;;7.25;4.30;;;;;;;10.65;100.00;101429.34;691849;28;4530;-65
2023/10/07 00:46:34;;;;;;;8.52;4.32;;;;;;;10.61;100.00;101435.41;689143;28;1712;-65
2023/10/07 00:47:11;;;;;;;8.50;4.13;;;;;;;10.57;100.00;101427.53;690293;28;2136;-65
2023/10/07 00:47:34;;;;;;;7.85;4.07;;;;;;;10.59;100.00;101431.91;688968;28;1842;-65
2023/10/07 00:48:00;;;;;;;7.32;4.45;;;;;;;10.55;100.00;101437.13;689759;28;1194;-65
2023/10/07 00:48:26;;;;;;;8.52;4.10;;;;;;;10.53;100.00;101430.97;686666;28;1718;-65
2023/10/07 00:48:52;;;;;;;7.88;4.10;;;;;;;10.53;100.00;101430.97;688341;28;4287;-65
2023/10/07 00:49:15;;;;;;;7.65;4.15;;;;;;;10.53;100.00;101427.50;685466;28;1211;-64
2023/10/07 00:50:04;;;;;;;7.45;3.90;;;;;;;10.58;100.00;101428.41;685383;28;853;-65
2023/10/07 00:50:27;;;;;;;7.07;3.95;;;;;;;10.58;100.00;101428.41;686064;28;1887;-64
2023/10/07 00:50:48;;;;;;;6.80;4.05;;;;;;;10.56;100.00;101430.13;687956;28;976;-64
2023/10/07 00:51:11;;;;;;;8.10;4.55;;;;;;;10.56;100.00;101422.28;689986;28;1015;-65
2023/10/07 00:51:34;;;;;;;8.70;4.43;;;;;;;10.57;100.00;101427.53;688790;28;1726;-64
2023/10/07 00:51:57;;;;;;;9.07;4.03;;;;;;;10.58;100.00;101428.41;687095;28;4893;-64
2023/10/07 00:52:41;;;;;;;7.05;4.00;;;;;;;10.62;100.00;101429.31;688595;28;1019;-65
2023/10/07 00:53:05;;;;;;;7.60;4.10;;;;;;;10.60;100.00;101431.03;690137;28;869;-65
2023/10/07 00:53:30;;;;;;;8.07;4.20;;;;;;;10.57;100.00;101430.13;689133;28;1756;-64
2023/10/07 00:54:00;;;;;;;8.43;4.30;;;;;;;10.54;100.00;101422.28;691995;28;880;-64
2023/10/07 00:54:31;;;;;;;8.25;4.22;;;;;;;10.56;100.00;101423.19;690759;28;1562;-64
2023/10/07 00:55:36;;;;;;;8.15;3.83;;;;;;;10.51;100.00;101418.78;692449;28;1769;-64
2023/10/07 00:55:58;;;;;;;8.20;4.20;;;;;;;10.49;100.00;101421.38;693123;28;770;-64
2023/10/07 00:56:23;;;;;;;8.07;4.18;;;;;;;10.49;100.00;101425.72;690237;28;865;-64
2023/10/07 00:56:53;;;;;;;8.32;4.40;;;;;;;10.49;100.00;101423.13;690317;28;976;-64
2023/10/07 00:58:03;;;;;;;9.02;4.15;;;;;;;10.55;100.00;101428.41;689873;28;4613;-64
2023/10/07 00:58:27;;;;;;;6.85;3.92;;;;;;;10.54;100.00;101424.03;691135;28;1723;-64
2023/10/07 00:58:49;;;;;;;8.05;4.38;;;;;;;10.54;100.00;101421.41;689580;28;1969;-64
2023/10/07 00:59:10;;;;;;;9.35;4.28;;;;;;;10.54;100.00;101427.50;685848;28;877;-64
2023/10/07 00:59:32;;;;;;;8.90;4.05;;;;;;;10.55;100.00;101433.63;681545;28;1700;-59
2023/10/07 00:59:56;;;;;;;8.13;4.03;;;;;;;10.53;100.00;101430.13;682056;29;916;-64
2023/10/07 01:01:05;;;;;;;7.68;3.80;;;;;;;10.51;100.00;101432.72;685075;28;4251;-64
2023/10/07 01:01:28;;;;;;;6.35;3.80;;;;;;;10.51;100.00;101432.72;688134;28;1895;-64
2023/10/07 01:01:50;;;;;;;7.97;3.97;;;;;;;10.50;100.00;101428.34;687587;28;925;-64
2023/10/07 01:02:18;;;;;;;8.85;4.30;;;;;;;10.51;100.00;101427.50;686590;28;1379;-64
2023/10/07 01:02:39;;;;;;;6.22;3.97;;;;;;;10.53;100.00;101425.75;683154;28;1855;-64
2023/10/07 01:03:51;;;;;;;8.68;4.13;;;;;;;10.55;100.00;101429.28;684433;28;1803;-64
2023/10/07 01:04:15;;;;;;;7.63;3.75;;;;;;;10.57;100.00;101426.66;685752;28;4799;-64
2023/10/07 01:04:42;;;;;;;8.45;4.07;;;;;;;10.57;100.00;101424.06;684961;28;1490;-64
2023/10/07 01:05:09;;;;;;;7.85;4.00;;;;;;;10.56;100.00;101433.66;686005;28;1441;-63
2023/10/07 01:05:33;;;;;;;6.72;4.00;;;;;;;10.55;100.00;101428.41;683458;28;1766;-64
2023/10/07 01:06:25;;;;;;;7.68;3.80;;;;;;;10.54;100.00;101427.50;685290;28;819;-63
2023/10/07 01:06:46;;;;;;;6.57;3.70;;;;;;;10.54;100.00;101422.28;683867;28;4563;-64
2023/10/07 01:07:07;;;;;;;6.57;4.00;;;;;;;10.55;100.00;101423.19;682024;28;1028;-66
2023/10/07 01:07:28;;;;;;;8.40;3.85;;;;;;;10.54;100.00;101430.13;686285;28;951;-63
2023/10/07 01:07:53;;;;;;;8.07;3.75;;;;;;;10.54;100.00;101437.97;688190;28;1785;-64
2023/10/07 01:08:14;;;;;;;8.65;3.90;;;;;;;10.54;100.00;101432.75;688362;28;847;-64
2023/10/07 01:08:50;;;;;;;7.70;3.90;;;;;;;10.54;100.00;101426.66;690892;28;1830;-63
2023/10/07 01:09:11;;;;;;;7.20;4.00;;;;;;;10.54;100.00;101429.25;692988;28;909;-63
2023/10/07 01:09:32;;;;;;;7.20;3.95;;;;;;;10.57;100.00;101432.75;688722;28;2055;-64
2023/10/07 01:10:27;;;;;;;7.40;3.95;;;;;;;10.59;100.00;101429.28;686043;28;1581;-64
2023/10/07 01:10:54;;;;;;;7.00;3.90;;;;;;;10.56;100.00;101428.41;686864;28;1314;-64
2023/10/07 01:11:40;;;;;;;9.20;4.00;;;;;;;10.55;100.00;101418.81;688385;28;2151;-64
2023/10/07 01:12:01;;;;;;;7.25;3.90;;;;;;;10.58;100.00;101417.97;688745;28;2276;-63
2023/10/07 01:12:25;;;;;;;8.00;4.00;;;;;;;10.59;100.00;101424.06;685770;28;1237;-64
2023/10/07 01:12:46;;;;;;;7.57;4.03;;;;;;;10.59;100.00;101413.59;686777;28;4608;-63
2023/10/07 01:13:25;;;;;;;7.90;3.80;;;;;;;10.62;100.00;101411.00;687628;28;901;-62
2023/10/07 01:13:56;;;;;;;7.45;3.88;;;;;;;10.64;100.00;101399.69;688248;28;1208;-63
2023/10/07 01:14:20;;;;;;;7.32;4.13;;;;;;;10.64;100.00;101399.69;692118;28;960;-64
2023/10/07 01:14:46;;;;;;;9.02;4.32;;;;;;;10.64;100.00;101399.69;691525;28;1453;-63
2023/10/07 01:15:17;;;;;;;8.32;4.00;;;;;;;10.65;100.00;101403.19;688506;28;857;-63
2023/10/07 01:15:39;;;;;;;7.60;4.10;;;;;;;10.63;100.00;101395.31;687644;28;1784;-64
2023/10/07 01:15:59;;;;;;;7.60;4.35;;;;;;;10.63;100.00;101399.69;689452;28;4339;-64
2023/10/07 01:17:00;;;;;;;7.40;3.63;;;;;;;10.58;100.00;101397.03;689222;28;785;-64
2023/10/07 01:17:30;;;;;;;6.88;4.07;;;;;;;10.57;100.00;101403.13;688959;28;1113;-65
2023/10/07 01:17:54;;;;;;;7.70;4.03;;;;;;;10.56;100.00;101394.44;686537;28;1645;-65
2023/10/07 01:18:19;;;;;;;8.93;4.28;;;;;;;10.55;100.00;101397.03;687165;28;1293;-64
2023/10/07 01:18:39;;;;;;;8.40;4.15;;;;;;;10.52;100.00;101392.66;686659;28;2168;-64
2023/10/07 01:19:43;;;;;;;7.80;4.07;;;;;;;10.55;100.00;101391.81;688807;28;2228;-65
2023/10/07 01:20:07;;;;;;;8.43;4.05;;;;;;;10.55;100.00;101397.03;693334;28;842;-64
2023/10/07 01:20:37;;;;;;;7.50;4.10;;;;;;;10.55;100.00;101390.06;691214;28;1433;-64
2023/10/07 01:21:31;;;;;;;8.37;4.20;;;;;;;10.55;100.00;101400.50;691603;28;1332;-64
2023/10/07 01:21:58;;;;;;;7.72;4.13;;;;;;;10.56;100.00;101398.75;689933;28;4341;-63
2023/10/07 01:22:23;;;;;;;8.13;4.13;;;;;;;10.56;100.00;101394.44;690137;28;1394;-64
2023/10/07 01:23:01;;;;;;;8.73;4.35;;;;;;;10.56;100.00;101399.66;687489;28;1510;-64
2023/10/07 01:23:23;;;;;;;8.60;4.22;;;;;;;10.59;100.00;101395.28;689124;28;1169;-65
2023/10/07 01:23:45;;;;;;;7.70;4.05;;;;;;;10.60;100.00;101402.28;688006;28;816;-65
2023/10/07 01:24:06;;;;;;;7.32;4.13;;;;;;;10.62;100.00;101395.31;688473;28;995;-64
2023/10/07 01:24:34;;;;;;;8.10;4.30;;;;;;;10.62;100.00;101398.81;687234;28;1323;-64
2023/10/07 01:24:56;;;;;;;7.72;4.30;;;;;;;10.62;100.00;101393.59;686245;28;4452;-64
2023/10/07 01:25:18;;;;;;;8.90;4.25;;;;;;;10.62;100.00;101392.69;686995;28;1185;-64
2023/10/07 01:25:44;;;;;;;7.28;3.80;;;;;;;10.62;100.00;101388.38;685696;28;1722;-64
2023/10/07 01:26:14;;;;;;;7.80;3.95;;;;;;;10.61;100.00;101393.59;681851;28;1280;-64
2023/10/07 01:26:41;;;;;;;10.68;4.15;;;;;;;10.61;100.00;101391.84;680727;29;2235;-64
2023/10/07 01:27:06;;;;;;;8.85;4.38;;;;;;;10.62;100.00;101393.59;687585;28;996;-64
2023/10/07 01:27:29;;;;;;;8.88;3.97;;;;;;;10.62;100.00;101384.84;686312;28;1485;-64
2023/10/07 01:27:53;;;;;;;7.47;3.97;;;;;;;10.65;100.00;101384.91;686159;28;4545;-64
2023/10/07 01:28:15;;;;;;;7.30;4.05;;;;;;;10.64;100.00;101381.38;689347;28;988;-64
2023/10/07 01:28:40;;;;;;;8.10;4.32;;;;;;;10.64;100.00;101391.84;688361;28;2344;-64
2023/10/07 01:29:13;;;;;;;8.13;4.18;;;;;;;10.65;100.00;101390.13;690414;28;849;-64
2023/10/07 01:29:34;;;;;;;8.15;4.28;;;;;;;10.65;100.00;101390.13;689225;28;1531;-64
2023/10/07 01:30:06;;;;;;;7.88;4.30;;;;;;;10.66;100.00;101378.78;686281;28;1586;-65
2023/10/07 01:30:29;;;;;;;7.50;4.00;;;;;;;10.68;100.00;101383.16;684889;28;2358;-65
2023/10/07 01:31:08;;;;;;;7.10;4.07;;;;;;;10.69;100.00;101384.06;686593;28;4507;-65
2023/10/07 01:31:29;;;;;;;7.75;4.30;;;;;;;10.72;100.00;101384.06;687538;28;1448;-64
2023/10/07 01:32:12;;;;;;;7.82;4.40;;;;;;;10.76;100.00;101391.06;691911;28;852;-64
2023/10/07 01:32:32;;;;;;;7.75;3.97;;;;;;;10.80;100.00;101382.38;690859;28;2434;-64
2023/10/07 01:33:05;;;;;;;10.25;4.10;;;;;;;10.85;100.00;101387.63;690206;28;1574;-65
2023/10/07 01:33:39;;;;;;;7.05;4.03;;;;;;;10.85;100.00;101382.38;687364;28;1935;-64
2023/10/07 01:34:01;;;;;;;6.88;3.90;;;;;;;10.83;100.00;101381.50;689021;28;4518;-65
2023/10/07 01:34:24;;;;;;;8.07;3.90;;;;;;;10.85;100.00;101385.00;690103;28;1170;-65
2023/10/07 01:34:51;;;;;;;9.10;4.30;;;;;;;10.86;100.00;101371.94;690937;28;1379;-65
2023/10/07 01:35:11;;;;;;;8.50;4.22;;;;;;;10.90;100.00;101376.31;693037;28;2511;-65
2023/10/07 01:35:33;;;;;;;8.10;4.05;;;;;;;10.93;100.00;101377.22;688202;28;1646;-64
2023/10/07 01:36:33;;;;;;;8.90;3.85;;;;;;;11.25;100.00;101375.59;686364;28;1838;-64
2023/10/07 01:36:53;;;;;;;9.13;4.27;;;;;;;11.23;100.00;101384.31;688718;28;4285;-64
2023/10/07 01:37:21;;;;;;;7.75;4.35;;;;;;;11.19;100.00;101370.34;687351;28;837;-64
2023/10/07 01:37:59;;;;;;;8.10;4.05;;;;;;;11.30;100.00;101379.97;685469;28;1845;-65
2023/10/07 01:38:20;;;;;;;8.57;4.20;;;;;;;11.30;100.00;101377.34;689432;28;814;-64
2023/10/07 01:38:44;;;;;;;7.67;4.00;;;;;;;11.38;100.00;101375.63;688702;28;1915;-64
2023/10/07 01:39:06;;;;;;;7.80;4.13;;;;;;;11.46;100.00;101360.81;687492;28;965;-64
2023/10/07 01:39:31;;;;;;;8.73;4.10;;;;;;;11.52;100.00;101366.09;686924;28;1052;-64
2023/10/07 01:39:54;;;;;;;8.43;4.00;;;;;;;11.56;100.00;101365.22;686964;28;4360;-65
2023/10/07 01:40:16;;;;;;;8.20;4.20;;;;;;;11.56;100.00;101357.38;688207;28;1253;-64
2023/10/07 01:41:18;;;;;;;8.07;4.18;;;;;;;11.69;100.00;101357.41;683269;28;1475;-64
2023/10/07 01:41:39;;;;;;;7.88;4.13;;;;;;;11.73;100.00;101359.16;680665;28;1759;-64
2023/10/07 01:42:05;;;;;;;8.47;4.47;;;;;;;11.67;100.00;101360.03;681906;28;1122;-64
2023/10/07 01:42:36;;;;;;;8.20;3.95;;;;;;;11.59;100.00;101361.75;682236;28;1780;-64
2023/10/07 01:42:57;;;;;;;8.15;4.10;;;;;;;11.51;100.00;101366.09;684223;28;5271;-64
2023/10/07 01:43:17;;;;;;;8.30;4.05;;;;;;;11.46;100.00;101366.06;687602;28;1369;-64
2023/10/07 01:43:41;;;;;;;9.90;4.47;;;;;;;11.51;100.00;101366.94;689124;28;2138;-65
2023/10/07 01:44:07;;;;;;;10.18;4.43;;;;;;;11.53;100.00;101370.47;692722;28;945;-62
2023/10/07 01:44:31;;;;;;;9.45;4.38;;;;;;;11.57;100.00;101373.94;688067;28;1493;-65
2023/10/07 01:45:08;;;;;;;8.23;4.13;;;;;;;11.71;100.00;101371.34;690278;28;1971;-65
2023/10/07 01:45:34;;;;;;;8.75;4.18;;;;;;;11.87;100.00;101378.38;685898;28;2256;-64
2023/10/07 01:45:55;;;;;;;8.82;4.15;;;;;;;11.98;100.00;101377.56;685778;28;4288;-64
2023/10/07 01:46:19;;;;;;;9.32;4.18;;;;;;;11.99;100.00;101376.66;687379;28;809;-64
2023/10/07 01:46:40;;;;;;;7.03;3.80;;;;;;;11.96;100.00;101374.06;689194;28;1722;-65
2023/10/07 01:47:00;;;;;;;8.93;4.10;;;;;;;11.88;100.00;101382.75;692293;28;1393;-64
2023/10/07 01:47:24;;;;;;;7.40;3.97;;;;;;;11.90;100.00;101374.88;692544;28;1216;-63
2023/10/07 01:47:45;;;;;;;8.18;3.97;;;;;;;11.85;100.00;101379.25;689502;28;1258;-64
2023/10/07 01:48:08;;;;;;;9.20;3.95;;;;;;;11.78;100.00;101378.34;690886;28;917;-66
2023/10/07 01:48:28;;;;;;;8.38;4.20;;;;;;;11.79;100.00;101377.47;687768;28;1697;-65
2023/10/07 01:48:55;;;;;;;8.63;3.80;;;;;;;11.74;100.00;101384.44;689366;28;4351;-63
2023/10/07 01:49:17;;;;;;;7.28;4.00;;;;;;;11.70;100.00;101380.06;690097;28;968;-63
2023/10/07 01:49:39;;;;;;;9.27;4.07;;;;;;;11.65;100.00;101376.59;689053;28;2354;-64
2023/10/07 01:50:02;;;;;;;8.82;3.90;;;;;;;11.72;100.00;101380.97;690126;28;912;-64
2023/10/07 01:50:24;;;;;;;8.90;4.38;;;;;;;11.67;100.00;101383.59;690155;28;1245;-64
2023/10/07 01:50:45;;;;;;;8.38;3.70;;;;;;;11.62;100.00;101376.59;691448;28;1196;-64
2023/10/07 01:51:12;;;;;;;8.02;3.85;;;;;;;11.71;100.00;101379.22;689066;28;1234;-63
2023/10/07 01:51:33;;;;;;;6.15;3.75;;;;;;;11.73;100.00;101378.34;688266;28;1435;-64
2023/10/07 01:51:53;;;;;;;6.93;3.97;;;;;;;11.73;100.00;101383.59;688519;28;4411;-64
2023/10/07 01:52:14;;;;;;;8.93;3.90;;;;;;;11.75;100.00;101386.22;688466;28;794;-64
2023/10/07 01:52:35;;;;;;;7.57;3.70;;;;;;;11.73;100.00;101380.09;688027;28;1476;-64
2023/10/07 01:52:56;;;;;;;7.40;3.90;;;;;;;11.72;100.00;101387.06;691154;28;905;-64
2023/10/07 01:53:16;;;;;;;7.53;3.95;;;;;;;11.69;100.00;101387.06;693190;28;891;-64
2023/10/07 01:53:38;;;;;;;8.87;4.10;;;;;;;11.66;100.00;101384.47;691977;28;1783;-64
2023/10/07 01:54:08;;;;;;;7.95;3.83;;;;;;;11.65;100.00;101384.47;688766;28;2097;-64
2023/10/07 01:54:33;;;;;;;8.40;3.78;;;;;;;11.76;100.00;101394.06;688144;28;1743;-64
2023/10/07 01:54:55;;;;;;;7.75;3.63;;;;;;;11.73;100.00;101390.59;687345;28;4498;-64
2023/10/07 01:55:16;;;;;;;7.15;3.78;;;;;;;11.73;100.00;101393.19;690455;28;1357;-64
2023/10/07 01:55:42;;;;;;;6.90;3.88;;;;;;;11.82;100.00;101393.19;686667;28;2270;-64
2023/10/07 01:56:05;;;;;;;7.18;3.90;;;;;;;11.78;100.00;101394.06;686084;28;1322;-64
2023/10/07 01:56:26;;;;;;;7.82;3.83;;;;;;;11.72;100.00;101394.94;685565;28;1977;-64
2023/10/07 01:56:48;;;;;;;8.20;3.70;;;;;;;11.76;100.00;101396.69;679873;28;1766;-63
2023/10/07 01:57:09;;;;;;;8.15;3.80;;;;;;;11.76;100.00;101393.19;684657;28;1375;-64
2023/10/07 01:57:30;;;;;;;7.15;3.85;;;;;;;11.72;100.00;101394.06;680553;28;1732;-64
2023/10/07 01:57:51;;;;;;;7.60;3.47;;;;;;;11.67;100.00;101393.16;680935;28;4504;-64
2023/10/07 01:58:16;;;;;;;7.13;3.53;;;;;;;11.70;100.00;101395.78;680196;29;1526;-64
2023/10/07 01:58:37;;;;;;;7.35;3.70;;;;;;;11.76;100.00;101394.06;678587;29;1578;-64
2023/10/07 01:59:36;;;;;;;7.65;4.00;;;;;;;11.73;100.00;101390.59;682111;28;1909;-64
2023/10/07 01:59:58;;;;;;;8.27;3.75;;;;;;;11.71;100.00;101390.59;683189;28;1490;-64
2023/10/07 02:00:43;;;;;;;8.15;4.10;;;;;;;11.74;100.00;101381.84;682305;28;2013;-64
2023/10/07 02:01:05;;;;;;;8.38;3.90;;;;;;;11.87;100.00;101380.13;682251;28;5351;-64
2023/10/07 02:01:28;;;;;;;7.50;3.92;;;;;;;11.86;100.00;101381.84;684487;28;2476;-63
2023/10/07 02:01:57;;;;;;;7.30;4.10;;;;;;;11.83;100.00;101383.63;687126;28;1031;-63
2023/10/07 02:02:25;;;;;;;7.85;3.70;;;;;;;11.79;100.00;101382.72;688279;28;876;-66
2023/10/07 02:02:49;;;;;;;6.63;3.65;;;;;;;11.76;100.00;101382.72;687950;28;956;-64
2023/10/07 02:03:13;;;;;;;8.57;3.78;;;;;;;11.76;100.00;101385.34;688656;28;825;-63
2023/10/07 02:03:35;;;;;;;7.75;3.72;;;;;;;11.76;100.00;101387.97;692034;28;1546;-64
2023/10/07 02:03:59;;;;;;;9.07;3.90;;;;;;;11.74;100.00;101387.06;691878;28;4265;-63
2023/10/07 02:04:28;;;;;;;9.70;3.95;;;;;;;11.71;100.00;101384.44;693002;28;1467;-64
2023/10/07 02:04:49;;;;;;;9.23;4.00;;;;;;;11.72;100.00;101384.44;690461;28;896;-64
2023/10/07 02:05:12;;;;;;;7.78;3.80;;;;;;;11.74;100.00;101384.44;688768;28;1282;-64